Addison, Illinois
Current Conditions -  °F | °C
As of 9:51 PM on Sunday 23 Nov 2014 (Local Time) from KORD Reporting Station
Light Rain Light Rain  
Wind Chill:   Ceiling: 500
Heat Index:   Visibility: 1.5mi
Dew Point:   Wind: 0mph
Humidity: 97%   Direction: NA
Pressure: 29.16"   Gusts: NA
Location:  41.93°N, 87.99°W
Report Text: KORD 240351Z 00000KT 1 1/2SM -RA BR OVC005 09/09 A2916 RMK AO2 SLP874 CIG 003V007 P0010 T00940089
Loading
Personal Weather Stations






























Interactive Weather Map New forecast layout! Learn more

10-Day Weather Forecast

Advertisements
Track Severe Weather on mobile